Wetterdaten: Woche 10.07.17 - 16.07.17 (KW28)
Datum Zeit Temp. Aussen Temp. o. S. +5cm Feuchte Auss BlattFeu 1 Luftdruck Regen Sonnenschein Regendauer Solar Windben Empfang
10.07.2017 00:00 20,0 C 19,0 C 18,0 C 76 % 0 lf 1008,9 hPa 0,0 l/m 0,00 h 0,00 h 4 W/m 10,2 km/h (2 Bft) 94,88 %
10.07.2017 01:00 19,3 C 18,3 C 17,5 C 77 % 0 lf 1008,7 hPa 0,0 l/m 0,00 h 0,00 h 5 W/m 5,9 km/h (2 Bft) 98,08 %
10.07.2017 02:00 18,8 C 18,0 C 17,2 C 78 % 0 lf 1008,5 hPa 0,0 l/m 0,00 h 0,00 h 0 W/m 4,3 km/h (1 Bft) 96,47 %
10.07.2017 03:00 18,4 C 17,8 C 16,9 C 80 % 1 lf 1008,0 hPa 0,0 l/m 0,00 h 0,03 h 0 W/m 4,9 km/h (1 Bft) 96,35 %
10.07.2017 04:00 18,2 C 17,2 C 16,1 C 81 % 7 lf 1007,6 hPa 0,0 l/m 0,00 h 0,53 h 0 W/m 4,1 km/h (1 Bft) 96,53 %
10.07.2017 05:00 17,7 C 16,3 C 14,8 C 84 % 12 lf 1007,0 hPa 0,0 l/m 0,00 h 0,50 h 6 W/m 3,7 km/h (1 Bft) 95,00 %
10.07.2017 06:00 17,2 C 16,7 C 15,6 C 87 % 1 lf 1007,0 hPa 0,0 l/m 0,00 h 0,00 h 17 W/m 3,0 km/h (1 Bft) 97,31 %
10.07.2017 07:00 17,2 C 18,0 C 17,3 C 87 % 0 lf 1007,2 hPa 0,0 l/m 0,00 h 0,10 h 83 W/m 4,4 km/h (1 Bft) 97,65 %
10.07.2017 08:00 18,2 C 19,5 C 18,9 C 85 % 0 lf 1007,0 hPa 0,0 l/m 0,00 h 0,00 h 124 W/m 4,1 km/h (1 Bft) 94,16 %
10.07.2017 09:00 19,7 C 23,6 C 22,9 C 83 % 0 lf 1006,8 hPa 0,0 l/m 0,33 h 0,00 h 338 W/m 8,3 km/h (2 Bft) 97,73 %
10.07.2017 10:00 23,7 C 31,4 C 30,7 C 70 % 0 lf 1006,6 hPa 0,0 l/m 1,00 h 0,00 h 690 W/m 10,3 km/h (2 Bft) 98,00 %
10.07.2017 11:00 26,1 C 33,0 C 31,1 C 61 % 0 lf 1006,7 hPa 0,0 l/m 1,00 h 0,00 h 641 W/m 13,3 km/h (3 Bft) 93,88 %
10.07.2017 12:00 27,1 C 32,4 C 31,6 C 56 % 0 lf 1006,7 hPa 0,0 l/m 0,93 h 0,00 h 566 W/m 14,3 km/h (3 Bft) 97,46 %
10.07.2017 13:00 28,0 C 35,5 C 31,1 C 52 % 0 lf 1006,4 hPa 0,0 l/m 1,00 h 0,00 h 867 W/m 17,4 km/h (3 Bft) 96,94 %
10.07.2017 14:00 29,2 C 34,7 C 36,5 C 44 % 0 lf 1006,1 hPa 0,0 l/m 1,00 h 0,00 h 871 W/m 20,6 km/h (4 Bft) 95,96 %
10.07.2017 15:00 29,3 C 33,4 C 36,6 C 45 % 0 lf 1006,0 hPa 0,0 l/m 0,97 h 0,00 h 687 W/m 19,9 km/h (4 Bft) 96,40 %
10.07.2017 16:00 29,0 C 31,1 C 33,2 C 46 % 0 lf 1006,0 hPa 0,0 l/m 0,83 h 0,00 h 452 W/m 20,6 km/h (4 Bft) 96,44 %
10.07.2017 17:00 28,0 C 28,5 C 29,1 C 48 % 0 lf 1006,0 hPa 0,0 l/m 0,33 h 0,00 h 247 W/m 21,2 km/h (4 Bft) 97,30 %
10.07.2017 18:00 25,7 C 25,6 C 25,6 C 58 % 0 lf 1006,5 hPa 0,0 l/m 0,00 h 0,00 h 140 W/m 23,8 km/h (4 Bft) 94,66 %
10.07.2017 19:00 23,3 C 22,6 C 22,1 C 64 % 0 lf 1007,1 hPa 0,0 l/m 0,00 h 0,00 h 47 W/m 27,1 km/h (4 Bft) 97,15 %
10.07.2017 20:00 21,3 C 20,8 C 19,4 C 71 % 0 lf 1007,6 hPa 0,0 l/m 0,00 h 0,00 h 31 W/m 17,7 km/h (3 Bft) 96,51 %
10.07.2017 21:00 20,7 C 20,1 C 19,2 C 73 % 0 lf 1008,0 hPa 0,0 l/m 0,00 h 0,00 h 13 W/m 12,0 km/h (2 Bft) 90,75 %
10.07.2017 22:00 20,1 C 19,0 C 18,2 C 75 % 0 lf 1008,6 hPa 0,0 l/m 0,00 h 0,00 h 5 W/m 3,1 km/h (1 Bft) 93,04 %
10.07.2017 23:00 19,7 C 18,5 C 17,8 C 77 % 0 lf 1008,7 hPa 0,0 l/m 0,00 h 0,00 h 5 W/m 0,0 km/h (0 Bft) 95,07 %
11.07.2017 00:00 19,1 C 18,0 C 16,7 C 80 % 0 lf 1008,8 hPa 0,0 l/m 0,00 h 0,00 h 4 W/m 3,2 km/h (1 Bft) 92,98 %
11.07.2017 01:00 18,4 C 17,9 C 16,6 C 83 % 0 lf 1008,8 hPa 0,0 l/m 0,00 h 0,00 h 4 W/m 8,7 km/h (2 Bft) 96,47 %
11.07.2017 02:00 18,0 C 17,4 C 16,2 C 82 % 0 lf 1009,0 hPa 0,0 l/m 0,00 h 0,00 h 2 W/m 17,8 km/h (3 Bft) 97,99 %
11.07.2017 03:00 16,9 C 16,1 C 14,8 C 83 % 0 lf 1008,9 hPa 0,0 l/m 0,00 h 0,00 h 3 W/m 15,6 km/h (3 Bft) 94,93 %
11.07.2017 04:00 15,9 C 15,0 C 13,8 C 84 % 0 lf 1008,9 hPa 0,0 l/m 0,00 h 0,00 h 0 W/m 10,0 km/h (2 Bft) 96,87 %
11.07.2017 05:00 15,3 C 14,7 C 13,4 C 86 % 0 lf 1009,1 hPa 0,0 l/m 0,07 h 0,00 h 11 W/m 11,7 km/h (2 Bft) 96,44 %
11.07.2017 06:00 15,6 C 15,9 C 15,2 C 88 % 0 lf 1009,5 hPa 0,0 l/m 0,00 h 0,00 h 31 W/m 16,0 km/h (3 Bft) 94,35 %
11.07.2017 07:00 16,1 C 16,2 C 15,6 C 87 % 0 lf 1009,8 hPa 0,0 l/m 0,00 h 0,00 h 38 W/m 20,4 km/h (4 Bft) 98,79 %
11.07.2017 08:00 16,5 C 17,1 C 16,7 C 86 % 0 lf 1010,2 hPa 0,0 l/m 0,00 h 0,00 h 101 W/m 23,9 km/h (4 Bft) 94,65 %
11.07.2017 09:00 17,5 C 18,9 C 18,8 C 83 % 0 lf 1010,7 hPa 0,0 l/m 0,03 h 0,00 h 210 W/m 25,5 km/h (4 Bft) 95,36 %
11.07.2017 10:00 19,3 C 24,3 C 23,6 C 78 % 0 lf 1011,0 hPa 0,0 l/m 0,87 h 0,00 h 525 W/m 26,4 km/h (4 Bft) 98,13 %
11.07.2017 11:00 22,1 C 29,3 C 28,0 C 68 % 0 lf 1011,0 hPa 0,0 l/m 1,00 h 0,00 h 757 W/m 24,1 km/h (4 Bft) 96,01 %
11.07.2017 12:00 24,4 C 30,5 C 30,9 C 59 % 0 lf 1010,7 hPa 0,0 l/m 0,90 h 0,00 h 807 W/m 25,0 km/h (4 Bft) 94,88 %
11.07.2017 13:00 24,1 C 27,6 C 27,0 C 58 % 0 lf 1010,6 hPa 0,0 l/m 0,60 h 0,00 h 646 W/m 25,5 km/h (4 Bft) 98,29 %
11.07.2017 14:00 24,5 C 27,4 C 28,6 C 57 % 0 lf 1010,6 hPa 0,0 l/m 0,73 h 0,00 h 540 W/m 23,2 km/h (4 Bft) 96,87 %
11.07.2017 15:00 24,2 C 26,2 C 27,9 C 57 % 0 lf 1010,7 hPa 0,0 l/m 0,80 h 0,00 h 446 W/m 26,1 km/h (4 Bft) 94,24 %
11.07.2017 16:00 24,3 C 26,0 C 27,9 C 55 % 0 lf 1010,5 hPa 0,0 l/m 0,43 h 0,00 h 396 W/m 25,4 km/h (4 Bft) 96,80 %
11.07.2017 17:00 23,6 C 24,7 C 25,5 C 58 % 0 lf 1010,3 hPa 0,0 l/m 0,43 h 0,00 h 297 W/m 21,7 km/h (4 Bft) 97,65 %
11.07.2017 18:00 23,4 C 24,2 C 24,6 C 60 % 0 lf 1010,0 hPa 0,0 l/m 0,77 h 0,00 h 258 W/m 15,9 km/h (3 Bft) 95,79 %
11.07.2017 19:00 23,3 C 23,4 C 22,9 C 59 % 0 lf 1009,8 hPa 0,0 l/m 0,33 h 0,00 h 163 W/m 13,7 km/h (3 Bft) 94,45 %
11.07.2017 20:00 21,4 C 19,2 C 18,1 C 72 % 4 lf 1010,4 hPa 0,0 l/m 0,00 h 0,23 h 18 W/m 13,1 km/h (3 Bft) 98,86 %
11.07.2017 21:00 19,2 C 18,4 C 17,7 C 83 % 0 lf 1010,4 hPa 0,0 l/m 0,00 h 0,00 h 7 W/m 6,9 km/h (2 Bft) 95,80 %
11.07.2017 22:00 18,8 C 18,3 C 17,5 C 84 % 0 lf 1010,6 hPa 0,0 l/m 0,00 h 0,00 h 0 W/m 6,4 km/h (2 Bft) 95,73 %
11.07.2017 23:00 18,6 C 17,8 C 17,2 C 86 % 0 lf 1010,5 hPa 0,0 l/m 0,00 h 0,00 h 0 W/m 2,7 km/h (1 Bft) 97,79 %
12.07.2017 00:00 18,2 C 17,1 C 16,2 C 88 % 9 lf 1010,2 hPa 0,2 l/m 0,00 h 0,50 h 0 W/m 6,5 km/h (2 Bft) 95,92 %
12.07.2017 01:00 17,6 C 16,6 C 15,4 C 89 % 12 lf 1010,1 hPa 0,0 l/m 0,00 h 0,40 h 3 W/m 10,6 km/h (2 Bft) 94,65 %
12.07.2017 02:00 17,2 C 16,1 C 15,3 C 90 % 2 lf 1009,3 hPa 0,0 l/m 0,00 h 0,00 h 0 W/m 2,9 km/h (1 Bft) 98,01 %
12.07.2017 03:00 16,8 C 16,3 C 15,3 C 92 % 3 lf 1008,7 hPa 0,2 l/m 0,00 h 0,40 h 0 W/m 6,2 km/h (2 Bft) 95,63 %
12.07.2017 04:00 16,7 C 15,6 C 15,0 C 94 % 15 lf 1008,1 hPa 0,2 l/m 0,00 h 0,43 h 0 W/m 7,1 km/h (2 Bft) 97,44 %
12.07.2017 05:00 16,5 C 15,6 C 14,8 C 95 % 15 lf 1007,5 hPa 2,4 l/m 0,00 h 0,93 h 2 W/m 7,4 km/h (2 Bft) 96,15 %
12.07.2017 06:00 16,2 C 15,6 C 15,0 C 96 % 15 lf 1006,9 hPa 1,6 l/m 0,00 h 0,93 h 8 W/m 5,6 km/h (1 Bft) 95,00 %
12.07.2017 07:00 16,2 C 15,6 C 15,1 C 96 % 15 lf 1006,5 hPa 0,8 l/m 0,00 h 0,93 h 35 W/m 8,8 km/h (2 Bft) 97,64 %
12.07.2017 08:00 16,3 C 15,7 C 15,1 C 97 % 15 lf 1006,0 hPa 1,8 l/m 0,00 h 1,00 h 46 W/m 13,4 km/h (3 Bft) 97,94 %
12.07.2017 09:00 16,2 C 15,7 C 15,1 C 97 % 15 lf 1005,6 hPa 4,0 l/m 0,00 h 1,00 h 52 W/m 16,4 km/h (3 Bft) 93,45 %
12.07.2017 10:00 16,3 C 16,0 C 15,3 C 98 % 15 lf 1005,1 hPa 2,2 l/m 0,00 h 0,90 h 68 W/m 18,6 km/h (3 Bft) 97,79 %
12.07.2017 11:00 16,7 C 16,5 C 16,1 C 98 % 15 lf 1004,9 hPa 0,2 l/m 0,00 h 0,60 h 131 W/m 18,0 km/h (3 Bft) 97,87 %
12.07.2017 12:00 17,0 C 16,7 C 16,2 C 98 % 15 lf 1004,5 hPa 1,4 l/m 0,00 h 0,97 h 124 W/m 23,4 km/h (4 Bft) 93,67 %
12.07.2017 13:00 16,9 C 16,2 C 15,6 C 98 % 15 lf 1005,2 hPa 6,0 l/m 0,00 h 1,00 h 99 W/m 32,0 km/h (5 Bft) 97,36 %
12.07.2017 14:00 16,0 C 15,9 C 15,3 C 97 % 15 lf 1007,2 hPa 1,2 l/m 0,00 h 0,83 h 205 W/m 26,9 km/h (4 Bft) 96,94 %
12.07.2017 15:00 16,4 C 17,4 C 17,2 C 98 % 9 lf 1009,0 hPa 0,0 l/m 0,10 h 0,00 h 240 W/m 23,0 km/h (4 Bft) 95,87 %
12.07.2017 16:00 17,3 C 17,8 C 18,1 C 93 % 0 lf 1011,5 hPa 0,0 l/m 0,10 h 0,00 h 239 W/m 27,3 km/h (4 Bft) 95,79 %
12.07.2017 17:00 16,9 C 17,7 C 16,9 C 87 % 1 lf 1013,5 hPa 0,0 l/m 0,00 h 0,03 h 156 W/m 27,8 km/h (4 Bft) 96,30 %
12.07.2017 18:00 16,6 C 17,8 C 16,9 C 86 % 1 lf 1015,0 hPa 0,0 l/m 0,20 h 0,07 h 188 W/m 22,5 km/h (4 Bft) 96,91 %
12.07.2017 19:00 17,1 C 17,5 C 16,2 C 81 % 0 lf 1016,1 hPa 0,0 l/m 0,63 h 0,00 h 190 W/m 22,8 km/h (4 Bft) 96,42 %
12.07.2017 20:00 16,8 C 16,5 C 15,1 C 76 % 0 lf 1017,2 hPa 0,0 l/m 0,73 h 0,00 h 96 W/m 18,4 km/h (3 Bft) 96,23 %
12.07.2017 21:00 15,9 C 14,6 C 13,3 C 77 % 0 lf 1018,3 hPa 0,0 l/m 0,27 h 0,00 h 20 W/m 10,4 km/h (2 Bft) 97,01 %
12.07.2017 22:00 14,3 C 12,0 C 10,8 C 79 % 0 lf 1019,4 hPa 0,0 l/m 0,00 h 0,00 h 5 W/m 5,3 km/h (1 Bft) 96,37 %
12.07.2017 23:00 12,7 C 10,4 C 9,6 C 82 % 0 lf 1020,3 hPa 0,0 l/m 0,00 h 0,00 h 3 W/m 2,0 km/h (1 Bft) 94,38 %
13.07.2017 00:00 11,6 C 9,6 C 9,2 C 85 % 0 lf 1020,8 hPa 0,0 l/m 0,00 h 0,00 h 3 W/m 1,7 km/h (1 Bft) 96,07 %
13.07.2017 01:00 11,0 C 9,2 C 8,7 C 87 % 1 lf 1021,2 hPa 0,0 l/m 0,00 h 0,00 h 3 W/m 0,3 km/h (0 Bft) 98,93 %
13.07.2017 02:00 10,5 C 9,1 C 8,7 C 89 % 2 lf 1021,3 hPa 0,0 l/m 0,00 h 0,00 h 4 W/m 0,0 km/h (0 Bft) 95,26 %
13.07.2017 03:00 10,4 C 9,6 C 9,4 C 91 % 1 lf 1021,6 hPa 0,0 l/m 0,00 h 0,00 h 5 W/m 1,0 km/h (0 Bft) 95,73 %
13.07.2017 04:00 10,5 C 9,0 C 8,5 C 93 % 2 lf 1021,7 hPa 0,0 l/m 0,00 h 0,00 h 5 W/m 0,6 km/h (0 Bft) 96,83 %
13.07.2017 05:00 10,0 C 8,4 C 7,9 C 93 % 9 lf 1022,1 hPa 0,0 l/m 0,13 h 0,00 h 11 W/m 0,6 km/h (0 Bft) 95,16 %
13.07.2017 06:00 9,5 C 8,5 C 8,0 C 93 % 15 lf 1022,4 hPa 0,0 l/m 0,37 h 0,00 h 41 W/m 0,9 km/h (0 Bft) 97,54 %
13.07.2017 07:00 9,9 C 10,0 C 9,1 C 95 % 15 lf 1022,5 hPa 0,0 l/m 0,80 h 0,00 h 188 W/m 0,3 km/h (0 Bft) 97,79 %
13.07.2017 08:00 11,5 C 16,6 C 11,8 C 97 % 1 lf 1022,8 hPa 0,0 l/m 1,00 h 0,00 h 369 W/m 5,9 km/h (2 Bft) 93,24 %
13.07.2017 09:00 15,0 C 25,8 C 15,9 C 85 % 0 lf 1022,9 hPa 0,0 l/m 0,77 h 0,00 h 472 W/m 6,6 km/h (2 Bft) 98,52 %
13.07.2017 10:00 16,5 C 21,5 C 17,1 C 73 % 0 lf 1022,9 hPa 0,0 l/m 0,77 h 0,00 h 525 W/m 5,3 km/h (1 Bft) 97,30 %
13.07.2017 11:00 17,8 C 23,4 C 20,5 C 68 % 0 lf 1022,7 hPa 0,0 l/m 0,57 h 0,00 h 550 W/m 5,9 km/h (2 Bft) 94,17 %
13.07.2017 12:00 18,9 C 23,0 C 20,9 C 63 % 0 lf 1022,3 hPa 0,0 l/m 0,73 h 0,00 h 675 W/m 8,7 km/h (2 Bft) 97,13 %
13.07.2017 13:00 19,7 C 26,3 C 22,1 C 58 % 0 lf 1021,9 hPa 0,0 l/m 1,00 h 0,00 h 981 W/m 9,5 km/h (2 Bft) 97,37 %
13.07.2017 14:00 21,4 C 26,8 C 27,3 C 53 % 0 lf 1021,3 hPa 0,0 l/m 0,83 h 0,00 h 808 W/m 11,9 km/h (2 Bft) 95,66 %
13.07.2017 15:00 21,9 C 26,0 C 28,2 C 51 % 0 lf 1020,7 hPa 0,0 l/m 0,73 h 0,00 h 707 W/m 10,8 km/h (2 Bft) 96,30 %
13.07.2017 16:00 22,1 C 23,8 C 26,5 C 50 % 0 lf 1020,3 hPa 0,0 l/m 0,73 h 0,00 h 552 W/m 10,8 km/h (2 Bft) 97,83 %
13.07.2017 17:00 21,3 C 21,8 C 21,2 C 51 % 0 lf 1019,8 hPa 0,0 l/m 0,50 h 0,00 h 366 W/m 7,6 km/h (2 Bft) 96,04 %
13.07.2017 18:00 21,2 C 22,0 C 20,5 C 50 % 0 lf 1019,1 hPa 0,0 l/m 0,83 h 0,00 h 342 W/m 7,6 km/h (2 Bft) 94,80 %
13.07.2017 19:00 20,8 C 20,6 C 19,5 C 52 % 0 lf 1018,8 hPa 0,0 l/m 0,73 h 0,00 h 169 W/m 5,0 km/h (1 Bft) 97,29 %
13.07.2017 20:00 20,2 C 19,8 C 18,4 C 57 % 0 lf 1018,3 hPa 0,0 l/m 0,30 h 0,00 h 77 W/m 7,0 km/h (2 Bft) 97,22 %
13.07.2017 21:00 18,8 C 17,5 C 16,3 C 62 % 0 lf 1018,0 hPa 0,0 l/m 0,13 h 0,00 h 18 W/m 7,1 km/h (2 Bft) 93,59 %
13.07.2017 22:00 17,4 C 15,2 C 13,8 C 68 % 0 lf 1018,2 hPa 0,0 l/m 0,00 h 0,00 h 4 W/m 3,8 km/h (1 Bft) 98,00 %
13.07.2017 23:00 15,8 C 13,3 C 12,2 C 75 % 0 lf 1017,8 hPa 0,0 l/m 0,00 h 0,00 h 0 W/m 0,2 km/h (0 Bft) 96,51 %
14.07.2017 00:00 14,4 C 12,2 C 11,3 C 79 % 0 lf 1017,5 hPa 0,0 l/m 0,00 h 0,00 h 2 W/m 0,0 km/h (0 Bft) 92,47 %
14.07.2017 01:00 13,2 C 11,5 C 10,6 C 83 % 0 lf 1017,2 hPa 0,0 l/m 0,00 h 0,00 h 4 W/m 0,0 km/h (0 Bft) 96,35 %
14.07.2017 02:00 12,4 C 10,9 C 10,0 C 86 % 0 lf 1016,6 hPa 0,0 l/m 0,00 h 0,00 h 0 W/m 0,0 km/h (0 Bft) 96,90 %
14.07.2017 03:00 11,6 C 10,4 C 9,6 C 88 % 0 lf 1016,2 hPa 0,0 l/m 0,00 h 0,00 h 3 W/m 0,0 km/h (0 Bft) 94,60 %
14.07.2017 04:00 11,4 C 10,9 C 10,2 C 90 % 0 lf 1015,9 hPa 0,0 l/m 0,00 h 0,00 h 3 W/m 0,0 km/h (0 Bft) 96,15 %
14.07.2017 05:00 11,4 C 11,4 C 10,6 C 92 % 0 lf 1015,8 hPa 0,0 l/m 0,00 h 0,00 h 7 W/m 0,0 km/h (0 Bft) 94,88 %
14.07.2017 06:00 11,8 C 12,6 C 11,9 C 93 % 0 lf 1015,8 hPa 0,0 l/m 0,00 h 0,00 h 25 W/m 0,0 km/h (0 Bft) 95,33 %
14.07.2017 07:00 12,5 C 14,3 C 12,9 C 93 % 0 lf 1015,8 hPa 0,0 l/m 0,37 h 0,00 h 118 W/m 0,0 km/h (0 Bft) 98,65 %
14.07.2017 08:00 14,3 C 19,9 C 14,8 C 92 % 0 lf 1015,7 hPa 0,0 l/m 0,60 h 0,00 h 298 W/m 0,0 km/h (0 Bft) 93,80 %
14.07.2017 09:00 18,6 C 30,2 C 20,0 C 71 % 0 lf 1015,9 hPa 0,0 l/m 1,00 h 0,00 h 556 W/m 0,0 km/h (0 Bft) 96,59 %
14.07.2017 10:00 21,5 C 30,8 C 26,2 C 59 % 0 lf 1015,8 hPa 0,0 l/m 1,00 h 0,00 h 694 W/m 14,1 km/h (3 Bft) 97,94 %
14.07.2017 11:00 23,0 C 30,9 C 26,9 C 52 % 0 lf 1015,6 hPa 0,0 l/m 0,87 h 0,00 h 698 W/m 16,7 km/h (3 Bft) 94,52 %
14.07.2017 12:00 22,3 C 25,1 C 24,0 C 54 % 0 lf 1015,5 hPa 0,0 l/m 0,27 h 0,00 h 370 W/m 16,4 km/h (3 Bft) 96,90 %
14.07.2017 13:00 22,3 C 25,3 C 24,0 C 57 % 0 lf 1015,3 hPa 0,0 l/m 0,43 h 0,03 h 371 W/m 12,5 km/h (3 Bft) 97,77 %
14.07.2017 14:00 20,6 C 18,0 C 16,6 C 69 % 12 lf 1015,2 hPa 0,6 l/m 0,00 h 0,70 h 69 W/m 12,6 km/h (3 Bft) 96,47 %
14.07.2017 15:00 17,8 C 16,4 C 15,6 C 85 % 15 lf 1015,4 hPa 0,4 l/m 0,00 h 0,57 h 102 W/m 7,7 km/h (2 Bft) 94,71 %
14.07.2017 16:00 17,3 C 16,6 C 15,5 C 88 % 15 lf 1015,8 hPa 0,2 l/m 0,00 h 0,43 h 134 W/m 13,7 km/h (3 Bft) 97,99 %
14.07.2017 17:00 16,7 C 15,6 C 15,0 C 91 % 15 lf 1016,1 hPa 1,6 l/m 0,00 h 0,53 h 79 W/m 12,9 km/h (3 Bft) 95,29 %
14.07.2017 18:00 16,4 C 16,4 C 16,1 C 94 % 14 lf 1016,4 hPa 0,0 l/m 0,30 h 0,00 h 177 W/m 10,5 km/h (2 Bft) 97,24 %
14.07.2017 19:00 16,7 C 17,0 C 15,7 C 89 % 1 lf 1016,6 hPa 0,0 l/m 0,47 h 0,00 h 146 W/m 15,4 km/h (3 Bft) 95,58 %
14.07.2017 20:00 16,5 C 16,3 C 14,6 C 80 % 0 lf 1017,0 hPa 0,0 l/m 0,27 h 0,00 h 68 W/m 13,7 km/h (3 Bft) 95,65 %
14.07.2017 21:00 15,8 C 15,3 C 13,8 C 79 % 0 lf 1017,5 hPa 0,0 l/m 0,00 h 0,00 h 11 W/m 11,9 km/h (2 Bft) 98,08 %
14.07.2017 22:00 15,2 C 14,3 C 13,2 C 81 % 0 lf 1018,0 hPa 0,0 l/m 0,00 h 0,00 h 0 W/m 12,9 km/h (3 Bft) 95,16 %
14.07.2017 23:00 14,4 C 13,2 C 11,9 C 83 % 0 lf 1018,6 hPa 0,0 l/m 0,00 h 0,00 h 5 W/m 13,1 km/h (3 Bft) 94,45 %
15.07.2017 00:00 13,4 C 12,1 C 10,7 C 85 % 0 lf 1019,0 hPa 0,0 l/m 0,00 h 0,00 h 4 W/m 9,6 km/h (2 Bft) 97,24 %
15.07.2017 01:00 12,5 C 11,0 C 9,8 C 87 % 0 lf 1019,2 hPa 0,0 l/m 0,00 h 0,00 h 4 W/m 4,1 km/h (1 Bft) 97,10 %
15.07.2017 02:00 11,7 C 10,5 C 9,4 C 89 % 1 lf 1019,4 hPa 0,0 l/m 0,00 h 0,00 h 4 W/m 6,0 km/h (2 Bft) 94,30 %
15.07.2017 03:00 11,2 C 10,0 C 9,1 C 91 % 2 lf 1019,5 hPa 0,0 l/m 0,00 h 0,00 h 3 W/m 6,3 km/h (2 Bft) 96,37 %
15.07.2017 04:00 11,0 C 10,5 C 9,4 C 93 % 2 lf 1019,6 hPa 0,0 l/m 0,00 h 0,00 h 0 W/m 9,6 km/h (2 Bft) 94,97 %
15.07.2017 05:00 11,2 C 11,1 C 10,1 C 95 % 1 lf 1020,0 hPa 0,0 l/m 0,00 h 0,00 h 13 W/m 8,3 km/h (2 Bft) 96,58 %
15.07.2017 06:00 11,7 C 12,1 C 11,0 C 95 % 0 lf 1020,7 hPa 0,0 l/m 0,00 h 0,00 h 38 W/m 8,8 km/h (2 Bft) 97,13 %
15.07.2017 07:00 12,0 C 12,7 C 11,1 C 95 % 0 lf 1021,0 hPa 0,0 l/m 0,47 h 0,00 h 133 W/m 9,2 km/h (2 Bft) 93,66 %
15.07.2017 08:00 13,3 C 18,7 C 13,1 C 94 % 0 lf 1021,3 hPa 0,0 l/m 1,00 h 0,00 h 368 W/m 9,9 km/h (2 Bft) 96,18 %
15.07.2017 09:00 16,5 C 25,6 C 18,0 C 83 % 0 lf 1021,7 hPa 0,0 l/m 0,93 h 0,00 h 524 W/m 11,7 km/h (2 Bft) 99,15 %
15.07.2017 10:00 18,8 C 28,8 C 23,8 C 71 % 0 lf 1021,8 hPa 0,0 l/m 0,97 h 0,00 h 736 W/m 14,4 km/h (3 Bft) 92,74 %
15.07.2017 11:00 20,4 C 29,0 C 24,4 C 64 % 0 lf 1021,9 hPa 0,0 l/m 0,73 h 0,00 h 651 W/m 13,7 km/h (3 Bft) 97,79 %
15.07.2017 12:00 21,7 C 28,7 C 25,5 C 60 % 0 lf 1022,0 hPa 0,0 l/m 0,77 h 0,00 h 638 W/m 15,9 km/h (3 Bft) 98,09 %
15.07.2017 13:00 22,4 C 28,8 C 24,7 C 59 % 0 lf 1021,9 hPa 0,0 l/m 0,80 h 0,00 h 813 W/m 15,3 km/h (3 Bft) 94,53 %
15.07.2017 14:00 22,5 C 26,1 C 25,2 C 58 % 0 lf 1021,9 hPa 0,0 l/m 0,97 h 0,00 h 596 W/m 14,0 km/h (3 Bft) 96,30 %
15.07.2017 15:00 22,5 C 25,5 C 24,7 C 58 % 0 lf 1021,9 hPa 0,0 l/m 1,00 h 0,00 h 565 W/m 11,5 km/h (2 Bft) 97,10 %
15.07.2017 16:00 22,3 C 24,7 C 24,2 C 59 % 0 lf 1021,9 hPa 0,0 l/m 0,90 h 0,00 h 580 W/m 9,2 km/h (2 Bft) 96,58 %
15.07.2017 17:00 22,1 C 23,3 C 22,4 C 60 % 0 lf 1021,7 hPa 0,0 l/m 0,83 h 0,00 h 443 W/m 9,7 km/h (2 Bft) 95,30 %
15.07.2017 18:00 21,5 C 21,6 C 20,6 C 63 % 0 lf 1021,4 hPa 0,0 l/m 0,43 h 0,00 h 202 W/m 6,9 km/h (2 Bft) 97,13 %
15.07.2017 19:00 21,0 C 21,0 C 20,0 C 65 % 0 lf 1021,6 hPa 0,0 l/m 0,00 h 0,00 h 59 W/m 2,2 km/h (1 Bft) 97,09 %
15.07.2017 20:00 20,6 C 20,2 C 18,8 C 67 % 0 lf 1021,7 hPa 0,0 l/m 0,00 h 0,00 h 32 W/m 1,7 km/h (1 Bft) 93,88 %
15.07.2017 21:00 20,1 C 19,3 C 17,8 C 71 % 0 lf 1021,6 hPa 0,0 l/m 0,00 h 0,00 h 15 W/m 4,5 km/h (1 Bft) 96,73 %
15.07.2017 22:00 19,4 C 18,6 C 17,0 C 75 % 0 lf 1021,8 hPa 0,0 l/m 0,00 h 0,00 h 2 W/m 3,1 km/h (1 Bft) 98,58 %
15.07.2017 23:00 18,7 C 18,0 C 16,7 C 76 % 0 lf 1021,7 hPa 0,0 l/m 0,00 h 0,00 h 0 W/m 0,0 km/h (0 Bft) 93,09 %
16.07.2017 00:00 18,2 C 17,8 C 16,6 C 78 % 0 lf 1021,5 hPa 0,0 l/m 0,00 h 0,00 h 0 W/m 4,6 km/h (1 Bft) 97,86 %
16.07.2017 01:00 18,1 C 18,0 C 16,7 C 77 % 0 lf 1021,5 hPa 0,0 l/m 0,00 h 0,00 h 0 W/m 9,8 km/h (2 Bft) 97,79 %
16.07.2017 02:00 18,2 C 17,9 C 16,7 C 77 % 0 lf 1021,6 hPa 0,0 l/m 0,00 h 0,00 h 0 W/m 12,1 km/h (2 Bft) 95,08 %
16.07.2017 03:00 17,7 C 17,3 C 16,2 C 78 % 0 lf 1021,7 hPa 0,0 l/m 0,00 h 0,00 h 0 W/m 14,0 km/h (3 Bft) 95,73 %
16.07.2017 04:00 17,3 C 16,9 C 15,8 C 83 % 0 lf 1021,6 hPa 0,0 l/m 0,00 h 0,17 h 4 W/m 10,1 km/h (2 Bft) 98,05 %
16.07.2017 05:00 17,2 C 16,4 C 15,2 C 85 % 5 lf 1021,5 hPa 0,0 l/m 0,00 h 0,30 h 5 W/m 9,3 km/h (2 Bft) 94,73 %
16.07.2017 06:00 16,9 C 16,3 C 14,8 C 88 % 6 lf 1021,5 hPa 0,0 l/m 0,00 h 0,13 h 12 W/m 9,7 km/h (2 Bft) 97,86 %
16.07.2017 07:00 16,7 C 16,7 C 15,4 C 91 % 4 lf 1021,6 hPa 0,0 l/m 0,00 h 0,00 h 43 W/m 6,9 km/h (2 Bft) 94,95 %
16.07.2017 08:00 17,3 C 18,7 C 18,0 C 89 % 0 lf 1022,0 hPa 0,0 l/m 0,00 h 0,00 h 142 W/m 11,2 km/h (2 Bft) 95,58 %
16.07.2017 09:00 18,3 C 19,3 C 18,6 C 85 % 0 lf 1022,1 hPa 0,0 l/m 0,00 h 0,00 h 127 W/m 10,9 km/h (2 Bft) 98,15 %
16.07.2017 10:00 19,0 C 20,7 C 20,3 C 84 % 0 lf 1022,1 hPa 0,0 l/m 0,00 h 0,00 h 218 W/m 11,9 km/h (2 Bft) 95,70 %
16.07.2017 11:00 20,1 C 21,8 C 21,4 C 81 % 0 lf 1022,1 hPa 0,0 l/m 0,07 h 0,00 h 243 W/m 11,5 km/h (2 Bft) 95,23 %
16.07.2017 12:00 20,3 C 22,3 C 22,2 C 83 % 0 lf 1022,3 hPa 0,0 l/m 0,13 h 0,00 h 321 W/m 15,6 km/h (3 Bft) 98,79 %
16.07.2017 13:00 21,8 C 25,8 C 25,3 C 81 % 0 lf 1021,8 hPa 0,0 l/m 0,83 h 0,00 h 592 W/m 13,4 km/h (3 Bft) 95,02 %
16.07.2017 14:00 23,3 C 25,8 C 25,6 C 77 % 0 lf 1021,6 hPa 0,0 l/m 1,00 h 0,00 h 734 W/m 15,0 km/h (3 Bft) 96,51 %
16.07.2017 15:00 23,2 C 24,3 C 23,8 C 76 % 0 lf 1021,5 hPa 0,0 l/m 1,00 h 0,00 h 614 W/m 15,9 km/h (3 Bft) 96,37 %
16.07.2017 16:00 22,8 C 23,6 C 22,9 C 78 % 0 lf 1021,6 hPa 0,0 l/m 0,03 h 0,00 h 198 W/m 14,3 km/h (3 Bft) 97,64 %
16.07.2017 17:00 22,5 C 23,3 C 22,6 C 79 % 0 lf 1021,6 hPa 0,0 l/m 0,00 h 0,00 h 169 W/m 15,3 km/h (3 Bft) 96,08 %
16.07.2017 18:00 22,7 C 23,8 C 23,3 C 78 % 0 lf 1021,2 hPa 0,0 l/m 0,10 h 0,00 h 193 W/m 18,2 km/h (3 Bft) 94,69 %
16.07.2017 19:00 22,7 C 23,2 C 22,2 C 78 % 0 lf 1021,0 hPa 0,0 l/m 0,50 h 0,00 h 136 W/m 12,0 km/h (2 Bft) 97,44 %
16.07.2017 20:00 22,2 C 22,1 C 21,1 C 79 % 0 lf 1021,0 hPa 0,0 l/m 0,00 h 0,00 h 47 W/m 10,3 km/h (2 Bft) 96,23 %
16.07.2017 21:00 21,5 C 20,7 C 19,5 C 82 % 0 lf 1021,1 hPa 0,0 l/m 0,00 h 0,00 h 7 W/m 6,6 km/h (2 Bft) 95,09 %
16.07.2017 22:00 20,7 C 19,4 C 18,2 C 84 % 0 lf 1021,3 hPa 0,0 l/m 0,00 h 0,00 h 0 W/m 2,2 km/h (1 Bft) 98,36 %
16.07.2017 23:00 20,1 C 19,2 C 18,0 C 86 % 0 lf 1021,1 hPa 0,0 l/m 0,00 h 0,00 h 0 W/m 0,1 km/h (0 Bft) 94,80 %
Min-Datum _ 13.07.17 13.07.17 13.07.17 10.07.17 10.07.17 12.07.17 - - - - 10.07.17 16.07.17
_ Min-Zeit 06:32 04:54 05:06 14:50 00:00 12:46 - - - - 02:10 18:15
Minimum _ 9,4 C 8,3 C 7,8 C 41 % 0 lf 1004,3 hPa - - - - 0,0 km/h (0 Bft) 54,39 %
Max-Datum _ 10.07.17 10.07.17 10.07.17 12.07.17 10.07.17 13.07.17 12.07.17 12.07.17 16.07.17 13.07.17 12.07.17 10.07.17
_ Max-Zeit 14:44 13:24 14:42 09:42 04:44 09:00 13:30 19:10 04:05 13:14 13:26 01:24
Maximum _ 29,6 C 37,2 C 39,4 C 98 % 15 lf 1023,0 hPa 6,0 l/m 0,08 h 0,08 h 1140 W/m 50,2 km/h
W-NW (7 Bft)
100,00 %
Durchschnitt _ 18,3 C 19,3 C 18,2 C 78 % 2 lf 1015,3 hPa #25,0 l/m #46:22 h #15:12 h 232 W/m 10,8 km/h (2 Bft) 96,21 %
© 2017 W. Hausmann